sensor_id;sensor_type;location;lat;lon;timestamp;temperature;humidity
71647;SHT31;59706;45.634;11.704;2023-04-24T00:01:35;17.33;74.61
71647;SHT31;59706;45.634;11.704;2023-04-24T00:04:04;17.35;74.51
71647;SHT31;59706;45.634;11.704;2023-04-24T00:06:32;17.42;74.40
71647;SHT31;59706;45.634;11.704;2023-04-24T00:09:00;17.41;74.37
71647;SHT31;59706;45.634;11.704;2023-04-24T00:11:27;17.40;74.28
71647;SHT31;59706;45.634;11.704;2023-04-24T00:13:54;17.40;74.20
71647;SHT31;59706;45.634;11.704;2023-04-24T00:16:22;17.37;74.22
71647;SHT31;59706;45.634;11.704;2023-04-24T00:18:50;17.35;74.26
71647;SHT31;59706;45.634;11.704;2023-04-24T00:21:21;17.31;74.22
71647;SHT31;59706;45.634;11.704;2023-04-24T00:23:50;17.31;74.20
71647;SHT31;59706;45.634;11.704;2023-04-24T00:26:18;17.29;74.21
71647;SHT31;59706;45.634;11.704;2023-04-24T00:28:45;17.26;74.25
71647;SHT31;59706;45.634;11.704;2023-04-24T00:31:12;17.33;74.19
71647;SHT31;59706;45.634;11.704;2023-04-24T00:33:39;17.43;74.02
71647;SHT31;59706;45.634;11.704;2023-04-24T00:36:07;17.51;73.87
71647;SHT31;59706;45.634;11.704;2023-04-24T00:38:34;17.48;73.84
71647;SHT31;59706;45.634;11.704;2023-04-24T00:41:01;17.42;73.87
71647;SHT31;59706;45.634;11.704;2023-04-24T00:43:29;17.36;73.97
71647;SHT31;59706;45.634;11.704;2023-04-24T00:45:56;17.30;74.05
71647;SHT31;59706;45.634;11.704;2023-04-24T00:48:26;17.27;74.12
71647;SHT31;59706;45.634;11.704;2023-04-24T00:50:54;17.22;74.19
71647;SHT31;59706;45.634;11.704;2023-04-24T00:53:23;17.17;74.27
71647;SHT31;59706;45.634;11.704;2023-04-24T00:55:51;17.19;74.25
71647;SHT31;59706;45.634;11.704;2023-04-24T00:58:18;17.22;74.18
71647;SHT31;59706;45.634;11.704;2023-04-24T01:00:45;17.24;74.17
71647;SHT31;59706;45.634;11.704;2023-04-24T01:03:12;17.25;74.24
71647;SHT31;59706;45.634;11.704;2023-04-24T01:05:39;17.22;74.33
71647;SHT31;59706;45.634;11.704;2023-04-24T01:08:07;17.22;74.36
71647;SHT31;59706;45.634;11.704;2023-04-24T01:10:35;17.19;74.34
71647;SHT31;59706;45.634;11.704;2023-04-24T01:13:04;17.18;74.28
71647;SHT31;59706;45.634;11.704;2023-04-24T01:15:31;17.18;74.16
71647;SHT31;59706;45.634;11.704;2023-04-24T01:17:58;17.20;74.03
71647;SHT31;59706;45.634;11.704;2023-04-24T01:20:25;17.20;73.91
71647;SHT31;59706;45.634;11.704;2023-04-24T01:22:54;17.21;73.76
71647;SHT31;59706;45.634;11.704;2023-04-24T01:25:22;17.19;73.67
71647;SHT31;59706;45.634;11.704;2023-04-24T01:27:51;17.19;73.57
71647;SHT31;59706;45.634;11.704;2023-04-24T01:30:18;17.16;73.42
71647;SHT31;59706;45.634;11.704;2023-04-24T01:32:45;17.11;73.39
71647;SHT31;59706;45.634;11.704;2023-04-24T01:35:12;17.08;73.30
71647;SHT31;59706;45.634;11.704;2023-04-24T01:37:39;17.12;73.17
71647;SHT31;59706;45.634;11.704;2023-04-24T01:40:07;17.20;72.91
71647;SHT31;59706;45.634;11.704;2023-04-24T01:42:36;17.18;72.83
71647;SHT31;59706;45.634;11.704;2023-04-24T01:45:04;17.14;72.84
71647;SHT31;59706;45.634;11.704;2023-04-24T01:47:36;17.13;72.77
71647;SHT31;59706;45.634;11.704;2023-04-24T01:50:02;17.09;72.64
71647;SHT31;59706;45.634;11.704;2023-04-24T01:52:32;17.06;72.59
71647;SHT31;59706;45.634;11.704;2023-04-24T01:55:01;17.05;72.43
71647;SHT31;59706;45.634;11.704;2023-04-24T01:57:32;17.06;72.35
71647;SHT31;59706;45.634;11.704;2023-04-24T01:59:59;17.02;72.29
71647;SHT31;59706;45.634;11.704;2023-04-24T02:02:28;17.08;72.21
71647;SHT31;59706;45.634;11.704;2023-04-24T02:04:55;17.16;71.97
71647;SHT31;59706;45.634;11.704;2023-04-24T02:07:23;17.16;71.83
71647;SHT31;59706;45.634;11.704;2023-04-24T02:09:50;17.10;71.74
71647;SHT31;59706;45.634;11.704;2023-04-24T02:12:17;17.08;71.85
71647;SHT31;59706;45.634;11.704;2023-04-24T02:14:44;17.04;71.76
71647;SHT31;59706;45.634;11.704;2023-04-24T02:17:12;16.99;71.71
71647;SHT31;59706;45.634;11.704;2023-04-24T02:19:40;17.00;71.68
71647;SHT31;59706;45.634;11.704;2023-04-24T02:22:07;17.03;71.69
71647;SHT31;59706;45.634;11.704;2023-04-24T02:24:35;17.05;71.62
71647;SHT31;59706;45.634;11.704;2023-04-24T02:27:04;17.06;71.69
71647;SHT31;59706;45.634;11.704;2023-04-24T02:29:31;17.09;71.56
71647;SHT31;59706;45.634;11.704;2023-04-24T02:31:59;17.08;71.59
71647;SHT31;59706;45.634;11.704;2023-04-24T02:34:26;17.03;71.62
71647;SHT31;59706;45.634;11.704;2023-04-24T02:36:53;17.01;71.53
71647;SHT31;59706;45.634;11.704;2023-04-24T02:39:20;16.97;71.48
71647;SHT31;59706;45.634;11.704;2023-04-24T02:41:47;17.01;71.26
71647;SHT31;59706;45.634;11.704;2023-04-24T02:44:15;17.04;71.03
71647;SHT31;59706;45.634;11.704;2023-04-24T02:46:42;17.02;70.68
71647;SHT31;59706;45.634;11.704;2023-04-24T02:49:09;17.03;70.56
71647;SHT31;59706;45.634;11.704;2023-04-24T02:51:37;17.02;70.40
71647;SHT31;59706;45.634;11.704;2023-04-24T02:54:06;17.01;70.43
71647;SHT31;59706;45.634;11.704;2023-04-24T02:56:54;17.04;70.15
71647;SHT31;59706;45.634;11.704;2023-04-24T02:59:21;17.01;70.08
71647;SHT31;59706;45.634;11.704;2023-04-24T03:01:49;17.00;69.77
71647;SHT31;59706;45.634;11.704;2023-04-24T03:04:17;17.05;69.59
71647;SHT31;59706;45.634;11.704;2023-04-24T03:06:45;17.07;69.25
71647;SHT31;59706;45.634;11.704;2023-04-24T03:09:31;17.11;68.87
71647;SHT31;59706;45.634;11.704;2023-04-24T03:11:58;17.14;68.70
71647;SHT31;59706;45.634;11.704;2023-04-24T03:14:25;17.10;68.76
71647;SHT31;59706;45.634;11.704;2023-04-24T03:16:54;17.13;68.52
71647;SHT31;59706;45.634;11.704;2023-04-24T03:19:22;17.13;68.01
71647;SHT31;59706;45.634;11.704;2023-04-24T03:21:50;17.08;67.75
71647;SHT31;59706;45.634;11.704;2023-04-24T03:24:17;17.09;67.54
71647;SHT31;59706;45.634;11.704;2023-04-24T03:26:45;17.08;67.54
71647;SHT31;59706;45.634;11.704;2023-04-24T03:29:13;17.12;67.70
71647;SHT31;59706;45.634;11.704;2023-04-24T03:31:40;17.17;67.32
71647;SHT31;59706;45.634;11.704;2023-04-24T03:34:07;17.18;66.91
71647;SHT31;59706;45.634;11.704;2023-04-24T03:36:35;17.19;67.04
71647;SHT31;59706;45.634;11.704;2023-04-24T03:39:02;17.19;67.07
71647;SHT31;59706;45.634;11.704;2023-04-24T03:41:30;17.17;67.39
71647;SHT31;59706;45.634;11.704;2023-04-24T03:43:58;17.13;67.69
71647;SHT31;59706;45.634;11.704;2023-04-24T03:46:25;17.10;67.88
71647;SHT31;59706;45.634;11.704;2023-04-24T03:48:52;17.09;67.88
71647;SHT31;59706;45.634;11.704;2023-04-24T03:51:19;17.11;67.62
71647;SHT31;59706;45.634;11.704;2023-04-24T03:53:47;17.12;67.53
71647;SHT31;59706;45.634;11.704;2023-04-24T03:56:14;17.08;68.10
71647;SHT31;59706;45.634;11.704;2023-04-24T03:58:42;17.05;67.84
71647;SHT31;59706;45.634;11.704;2023-04-24T04:01:09;17.01;67.42
71647;SHT31;59706;45.634;11.704;2023-04-24T04:03:37;17.00;67.80
71647;SHT31;59706;45.634;11.704;2023-04-24T04:06:05;17.02;68.07
71647;SHT31;59706;45.634;11.704;2023-04-24T04:08:33;17.03;68.32
71647;SHT31;59706;45.634;11.704;2023-04-24T04:11:00;16.99;68.56
71647;SHT31;59706;45.634;11.704;2023-04-24T04:13:27;16.95;68.59
71647;SHT31;59706;45.634;11.704;2023-04-24T04:15:54;16.94;68.36
71647;SHT31;59706;45.634;11.704;2023-04-24T04:18:21;16.92;68.53
71647;SHT31;59706;45.634;11.704;2023-04-24T04:20:48;16.89;68.70
71647;SHT31;59706;45.634;11.704;2023-04-24T04:23:16;16.84;69.19
71647;SHT31;59706;45.634;11.704;2023-04-24T04:25:43;16.79;69.88
71647;SHT31;59706;45.634;11.704;2023-04-24T04:28:12;16.69;70.26
71647;SHT31;59706;45.634;11.704;2023-04-24T04:30:39;16.71;71.04
71647;SHT31;59706;45.634;11.704;2023-04-24T04:33:07;16.65;71.02
71647;SHT31;59706;45.634;11.704;2023-04-24T04:35:35;16.56;71.26
71647;SHT31;59706;45.634;11.704;2023-04-24T04:38:02;16.58;71.84
71647;SHT31;59706;45.634;11.704;2023-04-24T04:40:33;16.64;72.44
71647;SHT31;59706;45.634;11.704;2023-04-24T04:43:00;16.70;72.69
71647;SHT31;59706;45.634;11.704;2023-04-24T04:45:27;16.75;72.49
71647;SHT31;59706;45.634;11.704;2023-04-24T04:47:55;16.71;72.70
71647;SHT31;59706;45.634;11.704;2023-04-24T04:50:22;16.63;72.37
71647;SHT31;59706;45.634;11.704;2023-04-24T04:52:49;16.53;72.21
71647;SHT31;59706;45.634;11.704;2023-04-24T04:55:17;16.38;72.67
71647;SHT31;59706;45.634;11.704;2023-04-24T04:57:45;16.32;72.94
71647;SHT31;59706;45.634;11.704;2023-04-24T05:00:13;16.32;73.21
71647;SHT31;59706;45.634;11.704;2023-04-24T05:02:42;16.34;73.66
71647;SHT31;59706;45.634;11.704;2023-04-24T05:05:09;16.33;74.06
71647;SHT31;59706;45.634;11.704;2023-04-24T05:07:36;16.27;74.28
71647;SHT31;59706;45.634;11.704;2023-04-24T05:10:04;16.27;74.42
71647;SHT31;59706;45.634;11.704;2023-04-24T05:12:34;16.22;74.64
71647;SHT31;59706;45.634;11.704;2023-04-24T05:15:02;16.16;74.92
71647;SHT31;59706;45.634;11.704;2023-04-24T05:17:32;16.10;75.15
71647;SHT31;59706;45.634;11.704;2023-04-24T05:20:00;16.04;75.36
71647;SHT31;59706;45.634;11.704;2023-04-24T05:22:30;16.01;75.54
71647;SHT31;59706;45.634;11.704;2023-04-24T05:24:57;15.99;75.79
71647;SHT31;59706;45.634;11.704;2023-04-24T05:27:25;15.97;75.89
71647;SHT31;59706;45.634;11.704;2023-04-24T05:29:52;15.97;76.01
71647;SHT31;59706;45.634;11.704;2023-04-24T05:32:20;16.02;76.06
71647;SHT31;59706;45.634;11.704;2023-04-24T05:34:47;16.05;76.10
71647;SHT31;59706;45.634;11.704;2023-04-24T05:37:14;16.03;76.32
71647;SHT31;59706;45.634;11.704;2023-04-24T05:39:41;16.02;76.48
71647;SHT31;59706;45.634;11.704;2023-04-24T05:42:08;15.98;76.68
71647;SHT31;59706;45.634;11.704;2023-04-24T05:44:37;16.01;76.79
71647;SHT31;59706;45.634;11.704;2023-04-24T05:47:06;16.06;76.87
71647;SHT31;59706;45.634;11.704;2023-04-24T05:49:33;16.08;76.93
71647;SHT31;59706;45.634;11.704;2023-04-24T05:52:01;16.10;76.86
71647;SHT31;59706;45.634;11.704;2023-04-24T05:54:30;16.10;76.67
71647;SHT31;59706;45.634;11.704;2023-04-24T05:56:58;16.02;76.48
71647;SHT31;59706;45.634;11.704;2023-04-24T05:59:29;15.90;76.82
71647;SHT31;59706;45.634;11.704;2023-04-24T06:01:56;15.94;77.01
71647;SHT31;59706;45.634;11.704;2023-04-24T06:04:24;16.03;76.99
71647;SHT31;59706;45.634;11.704;2023-04-24T06:06:51;16.05;76.89
71647;SHT31;59706;45.634;11.704;2023-04-24T06:09:21;16.03;76.89
71647;SHT31;59706;45.634;11.704;2023-04-24T06:11:49;16.01;76.80
71647;SHT31;59706;45.634;11.704;2023-04-24T06:14:18;16.00;76.75
71647;SHT31;59706;45.634;11.704;2023-04-24T06:16:45;16.03;76.61
71647;SHT31;59706;45.634;11.704;2023-04-24T06:19:12;15.97;76.73
71647;SHT31;59706;45.634;11.704;2023-04-24T06:21:40;15.89;76.99
71647;SHT31;59706;45.634;11.704;2023-04-24T06:24:07;15.83;77.24
71647;SHT31;59706;45.634;11.704;2023-04-24T06:26:35;15.79;77.73
71647;SHT31;59706;45.634;11.704;2023-04-24T06:29:02;15.76;77.75
71647;SHT31;59706;45.634;11.704;2023-04-24T06:31:30;15.70;77.83
71647;SHT31;59706;45.634;11.704;2023-04-24T06:34:01;15.65;78.05
71647;SHT31;59706;45.634;11.704;2023-04-24T06:36:28;15.63;78.09
71647;SHT31;59706;45.634;11.704;2023-04-24T06:38:56;15.73;77.73
71647;SHT31;59706;45.634;11.704;2023-04-24T06:41:23;15.86;77.43
71647;SHT31;59706;45.634;11.704;2023-04-24T06:43:50;15.91;77.24
71647;SHT31;59706;45.634;11.704;2023-04-24T06:46:18;15.96;77.09
71647;SHT31;59706;45.634;11.704;2023-04-24T06:48:47;16.00;76.97
71647;SHT31;59706;45.634;11.704;2023-04-24T06:51:14;16.00;76.42
71647;SHT31;59706;45.634;11.704;2023-04-24T06:53:42;15.94;76.40
71647;SHT31;59706;45.634;11.704;2023-04-24T06:56:09;15.85;76.65
71647;SHT31;59706;45.634;11.704;2023-04-24T06:58:38;15.75;76.73
71647;SHT31;59706;45.634;11.704;2023-04-24T07:01:07;15.63;76.72
71647;SHT31;59706;45.634;11.704;2023-04-24T07:03:36;15.65;76.31
71647;SHT31;59706;45.634;11.704;2023-04-24T07:06:04;15.64;76.48
71647;SHT31;59706;45.634;11.704;2023-04-24T07:08:32;15.61;76.81
71647;SHT31;59706;45.634;11.704;2023-04-24T07:11:00;15.56;76.91
71647;SHT31;59706;45.634;11.704;2023-04-24T07:13:28;15.48;77.24
71647;SHT31;59706;45.634;11.704;2023-04-24T07:15:55;15.45;77.45
71647;SHT31;59706;45.634;11.704;2023-04-24T07:18:23;15.48;77.34
71647;SHT31;59706;45.634;11.704;2023-04-24T07:20:51;15.52;77.32
71647;SHT31;59706;45.634;11.704;2023-04-24T07:23:19;15.53;77.26
71647;SHT31;59706;45.634;11.704;2023-04-24T07:25:46;15.53;77.19
71647;SHT31;59706;45.634;11.704;2023-04-24T07:28:13;15.50;77.30
71647;SHT31;59706;45.634;11.704;2023-04-24T07:30:43;15.47;77.31
71647;SHT31;59706;45.634;11.704;2023-04-24T07:33:10;15.45;76.31
71647;SHT31;59706;45.634;11.704;2023-04-24T07:35:38;15.37;76.65
71647;SHT31;59706;45.634;11.704;2023-04-24T07:38:05;15.37;76.24
71647;SHT31;59706;45.634;11.704;2023-04-24T07:40:31;15.38;75.50
71647;SHT31;59706;45.634;11.704;2023-04-24T07:42:59;15.38;74.67
71647;SHT31;59706;45.634;11.704;2023-04-24T07:45:26;15.41;73.29
71647;SHT31;59706;45.634;11.704;2023-04-24T07:47:53;15.40;73.18
71647;SHT31;59706;45.634;11.704;2023-04-24T07:50:21;15.32;72.98
71647;SHT31;59706;45.634;11.704;2023-04-24T07:52:48;15.15;73.32
71647;SHT31;59706;45.634;11.704;2023-04-24T07:55:16;15.09;73.54
71647;SHT31;59706;45.634;11.704;2023-04-24T07:57:43;15.22;73.73
71647;SHT31;59706;45.634;11.704;2023-04-24T08:00:11;15.25;73.79
71647;SHT31;59706;45.634;11.704;2023-04-24T08:02:41;15.14;72.99
71647;SHT31;59706;45.634;11.704;2023-04-24T08:05:09;15.09;73.61
71647;SHT31;59706;45.634;11.704;2023-04-24T08:07:36;15.00;73.59
71647;SHT31;59706;45.634;11.704;2023-04-24T08:10:04;14.98;73.72
71647;SHT31;59706;45.634;11.704;2023-04-24T08:12:36;15.00;73.75
71647;SHT31;59706;45.634;11.704;2023-04-24T08:15:04;15.07;73.66
71647;SHT31;59706;45.634;11.704;2023-04-24T08:17:36;15.26;73.53
71647;SHT31;59706;45.634;11.704;2023-04-24T08:20:03;15.43;73.39
71647;SHT31;59706;45.634;11.704;2023-04-24T08:22:38;15.50;73.07
71647;SHT31;59706;45.634;11.704;2023-04-24T08:25:12;15.54;72.71
71647;SHT31;59706;45.634;11.704;2023-04-24T08:27:39;15.63;72.46
71647;SHT31;59706;45.634;11.704;2023-04-24T08:30:08;15.67;72.78
71647;SHT31;59706;45.634;11.704;2023-04-24T08:32:38;15.68;73.34
71647;SHT31;59706;45.634;11.704;2023-04-24T08:35:06;15.77;72.64
71647;SHT31;59706;45.634;11.704;2023-04-24T08:37:35;15.89;72.88
71647;SHT31;59706;45.634;11.704;2023-04-24T08:40:06;15.97;73.13
71647;SHT31;59706;45.634;11.704;2023-04-24T08:42:44;15.97;73.88
71647;SHT31;59706;45.634;11.704;2023-04-24T08:45:11;15.99;73.96
71647;SHT31;59706;45.634;11.704;2023-04-24T08:47:39;15.97;74.11
71647;SHT31;59706;45.634;11.704;2023-04-24T08:50:07;16.01;73.48
71647;SHT31;59706;45.634;11.704;2023-04-24T08:52:37;16.14;73.19
71647;SHT31;59706;45.634;11.704;2023-04-24T08:55:05;16.26;73.70
71647;SHT31;59706;45.634;11.704;2023-04-24T08:57:35;16.36;73.23
71647;SHT31;59706;45.634;11.704;2023-04-24T09:00:05;16.28;72.64
71647;SHT31;59706;45.634;11.704;2023-04-24T09:02:41;16.27;72.58
71647;SHT31;59706;45.634;11.704;2023-04-24T09:05:09;16.37;73.07
71647;SHT31;59706;45.634;11.704;2023-04-24T09:07:36;16.55;73.47
71647;SHT31;59706;45.634;11.704;2023-04-24T09:10:09;16.73;72.90
71647;SHT31;59706;45.634;11.704;2023-04-24T09:12:38;16.82;72.17
71647;SHT31;59706;45.634;11.704;2023-04-24T09:15:05;16.83;71.48
71647;SHT31;59706;45.634;11.704;2023-04-24T09:17:36;16.87;71.60
71647;SHT31;59706;45.634;11.704;2023-04-24T09:20:04;16.93;71.53
71647;SHT31;59706;45.634;11.704;2023-04-24T09:22:35;17.00;71.59
71647;SHT31;59706;45.634;11.704;2023-04-24T09:25:02;17.13;70.36
71647;SHT31;59706;45.634;11.704;2023-04-24T09:27:35;17.19;69.35
71647;SHT31;59706;45.634;11.704;2023-04-24T09:30:02;17.19;67.86
71647;SHT31;59706;45.634;11.704;2023-04-24T09:32:33;17.17;67.75
71647;SHT31;59706;45.634;11.704;2023-04-24T09:35:07;17.17;67.14
71647;SHT31;59706;45.634;11.704;2023-04-24T09:37:39;17.18;67.08
71647;SHT31;59706;45.634;11.704;2023-04-24T09:40:11;17.20;65.52
71647;SHT31;59706;45.634;11.704;2023-04-24T09:42:51;17.17;65.04
71647;SHT31;59706;45.634;11.704;2023-04-24T09:45:21;17.21;66.52
71647;SHT31;59706;45.634;11.704;2023-04-24T09:48:04;17.36;64.96
71647;SHT31;59706;45.634;11.704;2023-04-24T09:50:35;17.39;64.43
71647;SHT31;59706;45.634;11.704;2023-04-24T09:53:02;17.39;63.91
71647;SHT31;59706;45.634;11.704;2023-04-24T09:55:30;17.42;64.79
71647;SHT31;59706;45.634;11.704;2023-04-24T09:57:58;17.48;63.61
71647;SHT31;59706;45.634;11.704;2023-04-24T10:00:28;17.49;63.96
71647;SHT31;59706;45.634;11.704;2023-04-24T10:03:03;17.54;63.31
71647;SHT31;59706;45.634;11.704;2023-04-24T10:06:12;17.60;61.95
71647;SHT31;59706;45.634;11.704;2023-04-24T10:08:40;17.65;61.22
71647;SHT31;59706;45.634;11.704;2023-04-24T10:11:08;17.68;61.53
71647;SHT31;59706;45.634;11.704;2023-04-24T10:13:38;17.76;60.87
71647;SHT31;59706;45.634;11.704;2023-04-24T10:16:06;17.80;60.36
71647;SHT31;59706;45.634;11.704;2023-04-24T10:18:33;17.87;60.60
71647;SHT31;59706;45.634;11.704;2023-04-24T10:21:01;17.94;60.24
71647;SHT31;59706;45.634;11.704;2023-04-24T10:23:29;18.02;59.83
71647;SHT31;59706;45.634;11.704;2023-04-24T10:25:57;18.10;59.67
71647;SHT31;59706;45.634;11.704;2023-04-24T10:28:25;18.16;59.38
71647;SHT31;59706;45.634;11.704;2023-04-24T10:30:53;18.15;58.83
71647;SHT31;59706;45.634;11.704;2023-04-24T10:33:21;18.14;58.62
71647;SHT31;59706;45.634;11.704;2023-04-24T10:35:50;18.18;58.82
71647;SHT31;59706;45.634;11.704;2023-04-24T10:38:21;18.21;59.21
71647;SHT31;59706;45.634;11.704;2023-04-24T10:40:50;18.25;58.58
71647;SHT31;59706;45.634;11.704;2023-04-24T10:43:18;18.25;58.71
71647;SHT31;59706;45.634;11.704;2023-04-24T10:46:05;18.27;58.59
71647;SHT31;59706;45.634;11.704;2023-04-24T10:48:33;18.34;59.46
71647;SHT31;59706;45.634;11.704;2023-04-24T10:51:00;18.44;58.96
71647;SHT31;59706;45.634;11.704;2023-04-24T10:53:28;18.48;57.47
71647;SHT31;59706;45.634;11.704;2023-04-24T10:56:03;18.51;57.91
71647;SHT31;59706;45.634;11.704;2023-04-24T11:01:23;18.55;58.61
71647;SHT31;59706;45.634;11.704;2023-04-24T11:04:01;18.47;58.17
71647;SHT31;59706;45.634;11.704;2023-04-24T11:06:30;18.46;58.20
71647;SHT31;59706;45.634;11.704;2023-04-24T11:09:19;18.47;58.25
71647;SHT31;59706;45.634;11.704;2023-04-24T11:11:47;18.51;57.83
71647;SHT31;59706;45.634;11.704;2023-04-24T11:14:15;18.58;57.86
71647;SHT31;59706;45.634;11.704;2023-04-24T11:16:52;18.67;59.19
71647;SHT31;59706;45.634;11.704;2023-04-24T11:19:25;18.72;58.52
71647;SHT31;59706;45.634;11.704;2023-04-24T11:22:16;18.71;58.25
71647;SHT31;59706;45.634;11.704;2023-04-24T11:27:13;18.70;57.31
71647;SHT31;59706;45.634;11.704;2023-04-24T11:37:44;18.83;57.55
71647;SHT31;59706;45.634;11.704;2023-04-24T11:40:17;18.86;58.27
71647;SHT31;59706;45.634;11.704;2023-04-24T11:42:51;18.96;59.09
71647;SHT31;59706;45.634;11.704;2023-04-24T11:45:27;19.03;58.47
71647;SHT31;59706;45.634;11.704;2023-04-24T11:48:18;19.04;57.52
71647;SHT31;59706;45.634;11.704;2023-04-24T11:50:46;19.05;59.06
71647;SHT31;59706;45.634;11.704;2023-04-24T11:53:13;19.12;58.85
71647;SHT31;59706;45.634;11.704;2023-04-24T11:55:41;19.08;57.83
71647;SHT31;59706;45.634;11.704;2023-04-24T11:58:09;19.11;58.28
71647;SHT31;59706;45.634;11.704;2023-04-24T12:00:36;19.21;59.23
71647;SHT31;59706;45.634;11.704;2023-04-24T12:03:10;19.31;59.24
71647;SHT31;59706;45.634;11.704;2023-04-24T12:05:38;19.29;57.72
71647;SHT31;59706;45.634;11.704;2023-04-24T12:08:05;19.32;58.33
71647;SHT31;59706;45.634;11.704;2023-04-24T12:10:33;19.38;58.83
71647;SHT31;59706;45.634;11.704;2023-04-24T12:13:00;19.47;58.88
71647;SHT31;59706;45.634;11.704;2023-04-24T12:15:28;19.49;58.67
71647;SHT31;59706;45.634;11.704;2023-04-24T12:17:55;19.55;59.19
71647;SHT31;59706;45.634;11.704;2023-04-24T12:20:24;19.53;58.03
71647;SHT31;59706;45.634;11.704;2023-04-24T12:23:14;19.46;58.15
71647;SHT31;59706;45.634;11.704;2023-04-24T12:25:42;19.47;58.44
71647;SHT31;59706;45.634;11.704;2023-04-24T12:28:10;19.47;58.47
71647;SHT31;59706;45.634;11.704;2023-04-24T12:30:43;19.45;58.45
71647;SHT31;59706;45.634;11.704;2023-04-24T12:33:32;19.40;58.11
71647;SHT31;59706;45.634;11.704;2023-04-24T12:36:00;19.46;58.54
71647;SHT31;59706;45.634;11.704;2023-04-24T12:38:27;19.50;58.46
71647;SHT31;59706;45.634;11.704;2023-04-24T12:41:11;19.46;58.16
71647;SHT31;59706;45.634;11.704;2023-04-24T12:43:50;19.43;58.11
71647;SHT31;59706;45.634;11.704;2023-04-24T12:46:18;19.48;58.57
71647;SHT31;59706;45.634;11.704;2023-04-24T12:48:45;19.54;58.12
71647;SHT31;59706;45.634;11.704;2023-04-24T12:51:13;19.63;58.37
71647;SHT31;59706;45.634;11.704;2023-04-24T12:53:40;19.75;58.30
71647;SHT31;59706;45.634;11.704;2023-04-24T12:56:07;19.88;58.37
71647;SHT31;59706;45.634;11.704;2023-04-24T12:58:36;20.02;59.06
71647;SHT31;59706;45.634;11.704;2023-04-24T13:01:04;20.21;59.85
71647;SHT31;59706;45.634;11.704;2023-04-24T13:03:31;20.22;58.11
71647;SHT31;59706;45.634;11.704;2023-04-24T13:05:58;20.09;57.78
71647;SHT31;59706;45.634;11.704;2023-04-24T13:08:26;20.06;57.68
71647;SHT31;59706;45.634;11.704;2023-04-24T13:10:53;20.03;57.64
71647;SHT31;59706;45.634;11.704;2023-04-24T13:13:19;20.12;58.78
71647;SHT31;59706;45.634;11.704;2023-04-24T13:15:47;20.23;59.15
71647;SHT31;59706;45.634;11.704;2023-04-24T13:18:15;20.20;58.12
71647;SHT31;59706;45.634;11.704;2023-04-24T13:20:42;20.17;58.74
71647;SHT31;59706;45.634;11.704;2023-04-24T13:23:10;20.16;57.86
71647;SHT31;59706;45.634;11.704;2023-04-24T13:25:38;20.19;57.40
71647;SHT31;59706;45.634;11.704;2023-04-24T13:28:05;20.17;56.96
71647;SHT31;59706;45.634;11.704;2023-04-24T13:30:32;20.11;56.05
71647;SHT31;59706;45.634;11.704;2023-04-24T13:32:59;20.02;56.17
71647;SHT31;59706;45.634;11.704;2023-04-24T13:35:27;19.94;57.44
71647;SHT31;59706;45.634;11.704;2023-04-24T13:37:54;19.92;57.93
71647;SHT31;59706;45.634;11.704;2023-04-24T13:40:21;19.94;57.91
71647;SHT31;59706;45.634;11.704;2023-04-24T13:42:49;19.90;57.50
71647;SHT31;59706;45.634;11.704;2023-04-24T13:45:15;19.92;58.11
71647;SHT31;59706;45.634;11.704;2023-04-24T13:47:43;19.94;57.95
71647;SHT31;59706;45.634;11.704;2023-04-24T13:50:11;19.89;58.63
71647;SHT31;59706;45.634;11.704;2023-04-24T13:52:38;19.82;57.95
71647;SHT31;59706;45.634;11.704;2023-04-24T13:55:06;19.81;56.88
71647;SHT31;59706;45.634;11.704;2023-04-24T13:57:36;19.84;58.21
71647;SHT31;59706;45.634;11.704;2023-04-24T14:00:03;19.93;58.21
71647;SHT31;59706;45.634;11.704;2023-04-24T14:02:35;19.91;57.14
71647;SHT31;59706;45.634;11.704;2023-04-24T14:05:02;19.84;57.46
71647;SHT31;59706;45.634;11.704;2023-04-24T14:07:33;19.84;57.27
71647;SHT31;59706;45.634;11.704;2023-04-24T14:10:00;19.80;56.89
71647;SHT31;59706;45.634;11.704;2023-04-24T14:12:27;19.76;57.18
71647;SHT31;59706;45.634;11.704;2023-04-24T14:14:54;19.75;57.49
71647;SHT31;59706;45.634;11.704;2023-04-24T14:17:22;19.78;57.29
71647;SHT31;59706;45.634;11.704;2023-04-24T14:19:49;19.80;56.93
71647;SHT31;59706;45.634;11.704;2023-04-24T14:22:17;19.83;57.20
71647;SHT31;59706;45.634;11.704;2023-04-24T14:24:45;19.82;57.36
71647;SHT31;59706;45.634;11.704;2023-04-24T14:27:12;19.81;56.74
71647;SHT31;59706;45.634;11.704;2023-04-24T14:29:39;19.81;56.91
71647;SHT31;59706;45.634;11.704;2023-04-24T14:32:07;19.80;56.61
71647;SHT31;59706;45.634;11.704;2023-04-24T14:34:35;19.79;56.88
71647;SHT31;59706;45.634;11.704;2023-04-24T14:37:02;19.76;56.92
71647;SHT31;59706;45.634;11.704;2023-04-24T14:39:29;19.75;56.50
71647;SHT31;59706;45.634;11.704;2023-04-24T14:41:56;19.78;56.87
71647;SHT31;59706;45.634;11.704;2023-04-24T14:44:24;19.79;56.73
71647;SHT31;59706;45.634;11.704;2023-04-24T14:46:51;19.82;57.44
71647;SHT31;59706;45.634;11.704;2023-04-24T14:49:19;19.86;57.55
71647;SHT31;59706;45.634;11.704;2023-04-24T14:51:47;19.88;57.08
71647;SHT31;59706;45.634;11.704;2023-04-24T14:54:14;19.89;56.98
71647;SHT31;59706;45.634;11.704;2023-04-24T14:56:41;19.90;57.30
71647;SHT31;59706;45.634;11.704;2023-04-24T14:59:09;19.89;56.91
71647;SHT31;59706;45.634;11.704;2023-04-24T15:01:36;19.85;57.01
71647;SHT31;59706;45.634;11.704;2023-04-24T15:04:03;19.89;57.13
71647;SHT31;59706;45.634;11.704;2023-04-24T15:06:31;19.85;56.78
71647;SHT31;59706;45.634;11.704;2023-04-24T15:08:58;19.85;56.80
71647;SHT31;59706;45.634;11.704;2023-04-24T15:11:25;19.89;57.09
71647;SHT31;59706;45.634;11.704;2023-04-24T15:13:52;19.95;57.23
71647;SHT31;59706;45.634;11.704;2023-04-24T15:16:20;19.96;56.65
71647;SHT31;59706;45.634;11.704;2023-04-24T15:18:48;19.95;56.64
71647;SHT31;59706;45.634;11.704;2023-04-24T15:21:16;19.88;56.67
71647;SHT31;59706;45.634;11.704;2023-04-24T15:23:44;19.85;56.82
71647;SHT31;59706;45.634;11.704;2023-04-24T15:26:11;19.90;57.49
71647;SHT31;59706;45.634;11.704;2023-04-24T15:28:38;19.89;56.73
71647;SHT31;59706;45.634;11.704;2023-04-24T15:31:06;19.85;56.74
71647;SHT31;59706;45.634;11.704;2023-04-24T15:33:33;19.82;56.62
71647;SHT31;59706;45.634;11.704;2023-04-24T15:36:00;19.82;56.61
71647;SHT31;59706;45.634;11.704;2023-04-24T15:38:28;19.83;56.47